Samos, Greece
Current Conditions -  °F | °C
As of 2:50 PM on Saturday 22 Nov 2014 (Local Time) from LGSM Reporting Station
Few Clouds Few Clouds  
Wind Chill: 59°   Ceiling: Unl
Heat Index: 59°   Visibility: 6mi
Dew Point: 43°   Wind: 10mph
Humidity: 55%   Direction: 20°NNE
Pressure: 30.15"   Gusts: NA
Location:  37.76°N, 26.98°E
Report Text: LGSM 221150Z 02009KT 9999 FEW020 15/06 Q1021
Loading
Personal Weather Stations






























Interactive Weather Map New forecast layout! Learn more

10-Day Weather Forecast

Advertisements
Track Severe Weather on mobile